Aeroporto :
LOGIN :

Iscrizione | Disclaimer

   EN    FR    IT 

 










Sommario :    VFR   VFR Marginale   IFR   IFR Intensivo   IFR Molto Intensivo
Visibilità : 
Base nubi : 
>= 8 km
>= 3000ft
5 / 8 km
1000 / 3000 ft
1500m / 5 km
500 / 1000 ft
800 / 1500m
200 / 500 ft
< 800m
< 200 ft
Simboli :   Temporali  Nebbia  Neve Forte  Precipitazioni Forti  Vento > 20 kt
SIGMETs :   Varie  Temporali  Ghiacco  Turbolenza  Onda orograficha  Ceneri Vulcaniche







- Altitudine del aeroporto : 28 ft
- Codice IATA : SOZ
- Carte del aeroporto


LFKS - Solenzara

ULTIMO METAR :
  • 221230Z AUTO 17005KT CAVOK 16/09 Q1019

METARs OBSOLETI :
  • 221200Z AUTO 15004KT 120V180 CAVOK 16/09 Q1019
  • 221130Z AUTO 12005KT 090V170 CAVOK 17/09 Q1019
  • 221100Z AUTO 12004KT 090V150 CAVOK 17/09 Q1020
  • 221030Z AUTO 12004KT 080V140 CAVOK 17/09 Q1020
  • 221000Z AUTO VRB03KT 9999 FEW088 17/09 Q1020

TAF TAF LFKS
Valido dal 22 a 09 ore il 23 a 09 ore UTC


220800Z 2209/2309 04006KT 9999 FEW033
BECMG 2209/2211 12010KT
BECMG 2218/2220 27010KT
Nessun NOTAM noto per questo aeroporto.



MetMap, La meteo Aeronautica in un colpo d'occhio ! - Copyright ORBIFLY Dicembre 2007 - Disclaimer

ORBIFLY MET'MAP TEAM :

Programmazione e sviluppo : Alexandra Zaïnal
Concezione e sviluppo : Baudouin d'Aumeries
Co-Programmazione e sviluppo : Marc-Olivier Méhu
Supporto tecnico e logistico : Manuel Goepfert
Aiuto per la traduzione : Arnaldo La Scala

Contatto : metmap@orbifly.com




FONTI E CREDITI :

   NOAA